createdAt,value
2023-02-02T00:01:33.253Z,4.20
2023-02-02T00:04:01.652Z,6.60
2023-02-02T00:06:30.751Z,8.83
2023-02-02T00:08:59.634Z,5.20
2023-02-02T00:11:28.045Z,5.40
2023-02-02T00:13:56.312Z,8.90
2023-02-02T00:16:39.795Z,6.43
2023-02-02T00:19:09.316Z,6.83
2023-02-02T00:21:38.272Z,8.10
2023-02-02T00:24:07.466Z,8.00
2023-02-02T00:26:35.792Z,9.30
2023-02-02T00:29:04.498Z,9.07
2023-02-02T00:31:32.802Z,9.23
2023-02-02T00:34:02.429Z,8.73
2023-02-02T00:36:30.680Z,9.57
2023-02-02T00:38:58.899Z,10.43
2023-02-02T00:41:27.163Z,11.87
2023-02-02T00:44:09.191Z,12.10
2023-02-02T00:46:39.950Z,12.20
2023-02-02T00:49:09.658Z,13.53
2023-02-02T00:51:38.148Z,13.17
2023-02-02T00:54:06.474Z,14.43
2023-02-02T00:56:34.739Z,16.33
2023-02-02T00:59:02.946Z,18.63
2023-02-02T01:01:31.285Z,13.30
2023-02-02T01:04:00.004Z,14.10
2023-02-02T01:06:29.773Z,16.20
2023-02-02T01:08:57.993Z,16.03
2023-02-02T01:11:26.746Z,16.10
2023-02-02T01:13:55.032Z,17.40
2023-02-02T01:16:23.491Z,20.77
2023-02-02T01:18:52.028Z,18.03
2023-02-02T01:21:20.336Z,18.83
2023-02-02T01:23:50.045Z,19.27
2023-02-02T01:26:18.532Z,20.07
2023-02-02T01:28:47.003Z,19.53
2023-02-02T01:31:16.556Z,21.47
2023-02-02T01:33:45.160Z,18.57
2023-02-02T01:36:15.224Z,18.20
2023-02-02T01:38:43.480Z,17.17
2023-02-02T01:41:15.296Z,20.73
2023-02-02T01:43:55.090Z,18.73
2023-02-02T01:46:24.598Z,23.77
2023-02-02T01:48:55.008Z,23.20
2023-02-02T01:51:25.531Z,22.87
2023-02-02T01:53:55.008Z,22.43
2023-02-02T01:56:28.126Z,23.20
2023-02-02T01:58:56.354Z,23.47
2023-02-02T02:01:24.650Z,22.60
2023-02-02T02:03:52.921Z,27.30
2023-02-02T02:06:21.338Z,25.73
2023-02-02T02:08:53.335Z,25.13
2023-02-02T02:11:21.678Z,24.17
2023-02-02T02:14:08.501Z,20.03
2023-02-02T02:16:44.010Z,21.97
2023-02-02T02:19:22.276Z,22.67
2023-02-02T02:22:12.792Z,20.30
2023-02-02T02:25:22.676Z,19.13
2023-02-02T02:28:35.079Z,16.23
2023-02-02T02:31:23.270Z,18.03
2023-02-02T02:33:55.588Z,15.70
2023-02-02T02:36:26.779Z,17.63
2023-02-02T02:38:58.101Z,16.07
2023-02-02T02:41:28.962Z,16.93
2023-02-02T02:43:59.075Z,20.17
2023-02-02T02:46:27.428Z,16.97
2023-02-02T02:48:58.066Z,16.33
2023-02-02T02:51:46.576Z,13.50
2023-02-02T02:54:16.258Z,13.60
2023-02-02T02:56:55.271Z,15.23
2023-02-02T02:59:29.150Z,12.93
2023-02-02T03:02:02.555Z,12.33
2023-02-02T03:04:35.023Z,13.53
2023-02-02T03:07:05.951Z,25.27
2023-02-02T03:09:36.751Z,12.20
2023-02-02T03:12:05.217Z,10.37
2023-02-02T03:14:36.240Z,11.87
2023-02-02T03:17:04.543Z,11.43
2023-02-02T03:19:34.192Z,11.73
2023-02-02T03:22:02.715Z,18.40
2023-02-02T03:24:30.967Z,8.80
2023-02-02T03:26:59.291Z,11.47
2023-02-02T03:29:27.597Z,9.70
2023-02-02T03:31:55.819Z,12.73
2023-02-02T03:34:24.133Z,11.50
2023-02-02T03:36:53.816Z,11.07
2023-02-02T03:39:22.156Z,11.40
2023-02-02T03:41:50.385Z,12.77
2023-02-02T03:44:18.608Z,10.60
2023-02-02T03:46:46.841Z,11.13
2023-02-02T03:49:15.075Z,15.73
2023-02-02T03:51:44.374Z,14.67
2023-02-02T03:54:14.139Z,10.67
2023-02-02T03:56:42.473Z,10.83
2023-02-02T03:59:10.680Z,13.97
2023-02-02T04:01:38.953Z,12.90
2023-02-02T04:04:07.269Z,12.57
2023-02-02T04:06:35.585Z,14.43
2023-02-02T04:09:03.843Z,11.40
2023-02-02T04:11:33.547Z,11.93
2023-02-02T04:14:01.799Z,12.37
2023-02-02T04:16:34.837Z,12.67
2023-02-02T04:19:03.240Z,20.00
2023-02-02T04:21:31.524Z,16.20
2023-02-02T04:23:59.731Z,14.43
2023-02-02T04:26:28.551Z,15.70
2023-02-02T04:28:58.243Z,13.97
2023-02-02T04:31:27.463Z,14.50
2023-02-02T04:33:55.724Z,19.53
2023-02-02T04:36:24.006Z,17.13
2023-02-02T04:38:52.347Z,15.73
2023-02-02T04:41:20.740Z,12.50
2023-02-02T04:43:49.070Z,15.10
2023-02-02T04:46:18.818Z,11.57
2023-02-02T04:48:48.910Z,9.10
2023-02-02T04:51:18.763Z,11.77
2023-02-02T04:53:46.967Z,10.73
2023-02-02T04:56:15.840Z,14.17
2023-02-02T04:58:44.101Z,14.27
2023-02-02T05:01:12.877Z,11.50
2023-02-02T05:03:42.523Z,9.97
2023-02-02T05:06:10.753Z,16.20
2023-02-02T05:08:39.764Z,8.40
2023-02-02T05:11:09.686Z,12.97
2023-02-02T05:13:37.889Z,11.20
2023-02-02T05:16:06.989Z,10.73
2023-02-02T05:18:35.240Z,7.33
2023-02-02T05:21:05.336Z,9.40
2023-02-02T05:23:33.571Z,6.87
2023-02-02T05:26:01.884Z,13.50
2023-02-02T05:28:30.264Z,10.90
2023-02-02T05:30:58.684Z,10.07
2023-02-02T05:33:26.937Z,15.33
2023-02-02T05:35:55.214Z,5.27
2023-02-02T05:38:24.869Z,7.57
2023-02-02T05:40:53.131Z,11.13
2023-02-02T05:43:21.679Z,6.83
2023-02-02T05:45:50.110Z,5.57
2023-02-02T05:48:18.377Z,10.33
2023-02-02T05:50:46.760Z,10.40
2023-02-02T05:53:15.465Z,8.03
2023-02-02T05:55:45.785Z,6.40
2023-02-02T05:58:14.008Z,9.53
2023-02-02T06:00:42.368Z,11.60
2023-02-02T06:03:13.043Z,8.37
2023-02-02T06:05:41.481Z,8.47
2023-02-02T06:08:09.723Z,6.27
2023-02-02T06:10:40.628Z,7.47
2023-02-02T06:13:10.369Z,10.17
2023-02-02T06:15:38.794Z,11.50
2023-02-02T06:18:08.508Z,11.47
2023-02-02T06:20:37.069Z,18.50
2023-02-02T06:23:05.463Z,20.93
2023-02-02T06:25:34.468Z,25.10
2023-02-02T06:28:02.782Z,26.33
2023-02-02T06:30:32.525Z,24.57
2023-02-02T06:33:01.163Z,24.00
2023-02-02T06:35:29.437Z,17.57
2023-02-02T06:37:57.738Z,15.53
2023-02-02T06:40:25.996Z,10.90
2023-02-02T06:42:57.769Z,7.17
2023-02-02T06:45:26.325Z,9.57
2023-02-02T06:47:56.185Z,6.13
2023-02-02T06:50:24.440Z,8.83
2023-02-02T06:52:52.865Z,12.00
2023-02-02T06:55:21.158Z,8.90
2023-02-02T06:57:49.406Z,8.67
2023-02-02T07:00:19.743Z,8.23
2023-02-02T07:02:48.958Z,12.67
2023-02-02T07:05:19.578Z,11.27
2023-02-02T07:07:47.865Z,7.90
2023-02-02T07:11:13.856Z,15.63
2023-02-02T07:13:04.458Z,11.63
2023-02-02T07:15:32.777Z,18.03
2023-02-02T07:18:01.025Z,12.50
2023-02-02T07:20:30.642Z,12.27
2023-02-02T07:22:58.971Z,14.43
2023-02-02T07:25:27.579Z,17.87
2023-02-02T07:27:56.026Z,18.80
2023-02-02T07:30:25.542Z,16.23
2023-02-02T07:32:53.911Z,17.80
2023-02-02T07:35:22.268Z,17.03
2023-02-02T07:37:54.562Z,17.53
2023-02-02T07:40:22.847Z,15.97
2023-02-02T07:42:51.133Z,14.27
2023-02-02T07:45:24.687Z,11.53
2023-02-02T07:47:59.184Z,13.10
2023-02-02T07:50:27.631Z,14.43
2023-02-02T07:52:57.366Z,12.40
2023-02-02T07:55:25.704Z,14.40
2023-02-02T07:57:55.524Z,10.33
2023-02-02T08:00:25.145Z,11.57
2023-02-02T08:02:53.693Z,15.23
2023-02-02T08:05:23.093Z,13.07
2023-02-02T08:07:51.562Z,12.73
2023-02-02T08:10:21.442Z,12.23
2023-02-02T08:12:49.797Z,10.00
2023-02-02T08:15:18.268Z,14.97
2023-02-02T08:17:49.949Z,13.23
2023-02-02T08:20:18.338Z,11.93
2023-02-02T08:22:46.727Z,12.17
2023-02-02T08:25:15.032Z,11.33
2023-02-02T08:27:44.738Z,11.63
2023-02-02T08:30:13.995Z,12.97
2023-02-02T08:32:42.318Z,11.67
2023-02-02T08:35:10.775Z,17.63
2023-02-02T08:37:39.067Z,16.03
2023-02-02T08:40:08.907Z,18.70
2023-02-02T08:42:37.184Z,14.90
2023-02-02T08:46:01.566Z,14.10
2023-02-02T08:48:10.718Z,13.50
2023-02-02T08:50:40.345Z,14.40
2023-02-02T08:53:08.609Z,12.50
2023-02-02T08:55:36.919Z,12.40
2023-02-02T08:58:05.386Z,14.33
2023-02-02T09:00:35.121Z,10.60
2023-02-02T09:03:03.371Z,9.33
2023-02-02T09:05:31.728Z,9.60
2023-02-02T09:07:59.998Z,11.50
2023-02-02T09:10:28.616Z,9.00
2023-02-02T09:12:56.872Z,12.90
2023-02-02T09:15:25.487Z,9.93
2023-02-02T09:17:55.381Z,10.03
2023-02-02T09:20:23.731Z,15.30
2023-02-02T09:22:52.032Z,16.33
2023-02-02T09:25:20.285Z,10.17
2023-02-02T09:27:48.564Z,15.33
2023-02-02T09:30:17.073Z,11.63
2023-02-02T09:32:45.719Z,14.10
2023-02-02T09:35:15.441Z,13.93
2023-02-02T09:37:45.393Z,14.30
2023-02-02T09:40:17.814Z,18.70
2023-02-02T09:43:00.649Z,13.17
2023-02-02T09:45:32.624Z,13.43
2023-02-02T09:48:05.147Z,15.70
2023-02-02T09:50:40.928Z,17.50
2023-02-02T09:53:16.132Z,10.00
2023-02-02T09:55:45.356Z,13.27
2023-02-02T09:58:16.039Z,11.70
2023-02-02T10:00:45.692Z,11.73
2023-02-02T10:03:16.867Z,10.20
2023-02-02T10:05:50.417Z,15.57
2023-02-02T10:08:34.108Z,13.30
2023-02-02T10:11:05.037Z,12.70
2023-02-02T10:13:34.198Z,13.43
2023-02-02T10:16:05.429Z,15.47
2023-02-02T10:18:40.633Z,13.17
2023-02-02T10:21:12.687Z,20.20
2023-02-02T10:23:43.045Z,15.17
2023-02-02T10:26:16.467Z,12.87
2023-02-02T10:28:49.746Z,15.10
2023-02-02T10:31:27.743Z,17.70
2023-02-02T10:34:03.576Z,19.77
2023-02-02T10:36:39.714Z,16.17
2023-02-02T10:39:11.755Z,18.57
2023-02-02T10:41:42.582Z,14.30
2023-02-02T10:44:18.978Z,15.33
2023-02-02T10:46:48.265Z,9.70
2023-02-02T10:49:20.373Z,10.67
2023-02-02T10:51:55.233Z,8.00
2023-02-02T10:54:55.770Z,7.73
2023-02-02T10:57:38.028Z,8.00
2023-02-02T11:00:10.762Z,6.87
2023-02-02T11:02:39.076Z,7.93
2023-02-02T11:05:24.962Z,8.47
2023-02-02T11:07:54.955Z,8.57
2023-02-02T11:10:23.389Z,9.23
2023-02-02T11:12:53.711Z,11.83
2023-02-02T11:15:27.009Z,9.27
2023-02-02T11:17:55.519Z,10.50
2023-02-02T11:20:25.762Z,9.60
2023-02-02T11:23:05.365Z,10.60
2023-02-02T11:25:35.032Z,10.07
2023-02-02T11:28:11.584Z,7.67
2023-02-02T11:30:39.929Z,7.77
2023-02-02T11:33:22.355Z,7.50
2023-02-02T11:35:54.928Z,7.90
2023-02-02T11:38:24.639Z,9.67
2023-02-02T11:40:57.586Z,7.77
2023-02-02T11:43:28.471Z,5.13
2023-02-02T11:46:00.262Z,6.67
2023-02-02T11:48:32.548Z,9.20
2023-02-02T11:51:01.407Z,23.37
2023-02-02T11:53:32.381Z,13.47
2023-02-02T11:56:03.041Z,18.37
2023-02-02T11:58:31.539Z,14.37
2023-02-02T12:01:01.661Z,19.73
2023-02-02T12:03:34.563Z,15.93
2023-02-02T12:06:03.251Z,12.97
2023-02-02T12:08:33.001Z,10.20
2023-02-02T12:11:02.324Z,12.63
2023-02-02T12:13:43.923Z,12.87
2023-02-02T12:16:19.097Z,9.17
2023-02-02T12:18:53.378Z,12.30
2023-02-02T12:21:22.920Z,7.23
2023-02-02T12:24:13.431Z,8.60
2023-02-02T12:26:42.447Z,8.20
2023-02-02T12:29:23.182Z,7.03
2023-02-02T12:32:01.629Z,7.33
2023-02-02T12:34:33.983Z,8.80
2023-02-02T12:37:04.667Z,5.50
2023-02-02T12:39:37.489Z,9.60
2023-02-02T12:42:53.782Z,10.00
2023-02-02T12:45:38.087Z,10.93
2023-02-02T12:48:17.705Z,8.40
2023-02-02T12:50:55.035Z,12.83
2023-02-02T12:53:32.387Z,11.93
2023-02-02T12:56:06.817Z,11.27
2023-02-02T12:58:38.087Z,11.33
2023-02-02T13:01:13.474Z,7.67
2023-02-02T13:03:56.238Z,8.47
2023-02-02T13:06:53.900Z,11.17
2023-02-02T13:09:24.758Z,9.03
2023-02-02T13:11:55.956Z,6.97
2023-02-02T13:14:25.567Z,9.07
2023-02-02T13:16:57.439Z,9.70
2023-02-02T13:19:30.153Z,7.97
2023-02-02T13:21:59.135Z,11.23
2023-02-02T13:24:31.188Z,9.43
2023-02-02T13:27:01.307Z,10.53
2023-02-02T13:29:33.282Z,8.93
2023-02-02T13:32:04.420Z,12.50
2023-02-02T13:34:40.065Z,9.63
2023-02-02T13:37:17.190Z,11.13
2023-02-02T13:39:46.686Z,11.07
2023-02-02T13:42:27.515Z,11.40
2023-02-02T13:44:58.210Z,13.20
2023-02-02T13:47:29.139Z,10.23
2023-02-02T13:49:58.253Z,7.90
2023-02-02T13:52:36.679Z,11.27
2023-02-02T13:55:43.765Z,9.13
2023-02-02T13:58:23.984Z,7.30
2023-02-02T14:00:53.065Z,5.13
2023-02-02T14:03:29.803Z,8.37
2023-02-02T14:06:08.569Z,8.40
2023-02-02T14:08:36.887Z,6.10
2023-02-02T14:11:06.282Z,7.33
2023-02-02T14:14:00.349Z,6.03
2023-02-02T14:16:44.776Z,5.93
2023-02-02T14:19:16.159Z,6.63
2023-02-02T14:22:03.949Z,7.83
2023-02-02T14:24:44.848Z,5.97
2023-02-02T14:27:58.961Z,7.73
2023-02-02T14:30:35.303Z,7.90
2023-02-02T14:33:28.564Z,7.17
2023-02-02T14:36:04.129Z,7.07
2023-02-02T14:38:54.351Z,6.13
2023-02-02T14:41:40.273Z,5.17
2023-02-02T14:44:08.572Z,5.70
2023-02-02T14:46:48.204Z,4.63
2023-02-02T14:49:21.156Z,5.80
2023-02-02T14:51:57.300Z,5.60
2023-02-02T14:54:34.354Z,5.57
2023-02-02T14:57:04.101Z,5.00
2023-02-02T14:59:34.794Z,4.27
2023-02-02T15:02:16.182Z,6.37
2023-02-02T15:04:48.028Z,4.90
2023-02-02T15:07:55.530Z,4.90
2023-02-02T15:10:58.046Z,6.57
2023-02-02T15:13:26.455Z,7.70
2023-02-02T15:16:04.522Z,11.77
2023-02-02T15:18:38.886Z,7.83
2023-02-02T15:21:07.163Z,9.67
2023-02-02T15:23:36.201Z,9.27
2023-02-02T15:26:06.181Z,7.93
2023-02-02T15:28:39.565Z,8.80
2023-02-02T15:31:13.702Z,10.73
2023-02-02T15:33:44.136Z,7.93
2023-02-02T15:36:13.686Z,10.33
2023-02-02T15:38:42.396Z,6.13
2023-02-02T15:41:15.650Z,7.13
2023-02-02T15:43:43.903Z,10.53
2023-02-02T15:46:12.980Z,7.93
2023-02-02T15:48:43.891Z,9.33
2023-02-02T15:51:17.166Z,10.83
2023-02-02T15:53:49.823Z,11.10
2023-02-02T15:56:27.012Z,8.97
2023-02-02T15:58:56.178Z,8.50
2023-02-02T16:01:24.918Z,8.17
2023-02-02T16:03:56.583Z,8.97
2023-02-02T16:06:24.858Z,7.87
2023-02-02T16:08:53.466Z,9.43
2023-02-02T16:11:23.353Z,8.20
2023-02-02T16:13:59.253Z,7.60
2023-02-02T16:16:29.105Z,12.60
2023-02-02T16:19:14.983Z,10.90
2023-02-02T16:21:46.477Z,10.83
2023-02-02T16:24:17.130Z,13.20
2023-02-02T16:26:45.427Z,12.03
2023-02-02T16:29:17.147Z,10.53
2023-02-02T16:31:46.149Z,9.07
2023-02-02T16:34:19.600Z,10.57
2023-02-02T16:37:05.767Z,9.33
2023-02-02T16:39:34.068Z,8.87
2023-02-02T16:42:12.397Z,9.50
2023-02-02T16:44:42.964Z,7.50
2023-02-02T16:47:33.259Z,5.93
2023-02-02T16:50:27.425Z,6.70
2023-02-02T16:52:56.772Z,7.90
2023-02-02T16:55:27.932Z,7.50
2023-02-02T16:57:59.804Z,12.53
2023-02-02T17:00:29.327Z,9.03
2023-02-02T17:02:59.499Z,8.60
2023-02-02T17:05:29.809Z,7.03
2023-02-02T17:08:00.583Z,11.90
2023-02-02T17:10:31.170Z,8.47
2023-02-02T17:13:00.298Z,8.67
2023-02-02T17:15:34.148Z,5.47
2023-02-02T17:18:03.006Z,8.47
2023-02-02T17:20:34.503Z,8.37
2023-02-02T17:23:03.875Z,6.93
2023-02-02T17:25:34.451Z,7.07
2023-02-02T17:28:02.726Z,9.33
2023-02-02T17:30:31.092Z,8.07
2023-02-02T17:32:59.460Z,6.63
2023-02-02T17:35:37.095Z,10.17
2023-02-02T17:38:13.463Z,7.60
2023-02-02T17:40:41.814Z,9.37
2023-02-02T17:43:10.610Z,8.20
2023-02-02T17:45:39.127Z,6.90
2023-02-02T17:48:07.967Z,9.23
2023-02-02T17:50:36.623Z,8.77
2023-02-02T17:53:04.908Z,9.10
2023-02-02T17:55:37.725Z,9.90
2023-02-02T17:58:06.393Z,10.50
2023-02-02T18:00:34.721Z,9.33
2023-02-02T18:03:13.510Z,9.57
2023-02-02T18:05:43.584Z,8.17
2023-02-02T18:08:12.497Z,9.33
2023-02-02T18:10:42.329Z,6.80
2023-02-02T18:13:11.973Z,6.47
2023-02-02T18:15:40.404Z,10.00
2023-02-02T18:18:08.692Z,7.47
2023-02-02T18:20:37.376Z,7.30
2023-02-02T18:23:05.687Z,10.23
2023-02-02T18:25:34.079Z,7.03
2023-02-02T18:28:03.866Z,8.50
2023-02-02T18:30:32.565Z,8.27
2023-02-02T18:33:01.005Z,12.37
2023-02-02T18:35:29.378Z,10.37
2023-02-02T18:37:57.932Z,9.77
2023-02-02T18:40:26.187Z,8.17
2023-02-02T18:42:54.462Z,7.80
2023-02-02T18:45:24.621Z,11.70
2023-02-02T18:47:53.042Z,9.03
2023-02-02T18:50:22.112Z,10.93
2023-02-02T18:52:50.424Z,7.43
2023-02-02T18:55:18.815Z,11.30
2023-02-02T18:57:47.198Z,9.27
2023-02-02T19:00:16.862Z,9.93
2023-02-02T19:02:46.719Z,8.17
2023-02-02T19:05:32.068Z,7.50
2023-02-02T19:08:00.558Z,8.50
2023-02-02T19:10:28.973Z,9.20
2023-02-02T19:12:59.238Z,5.47
2023-02-02T19:15:27.736Z,7.73
2023-02-02T19:17:58.062Z,5.50
2023-02-02T19:20:27.972Z,7.07
2023-02-02T19:23:04.063Z,7.87
2023-02-02T19:25:32.591Z,6.53
2023-02-02T19:28:01.844Z,5.83
2023-02-02T19:30:30.336Z,6.87
2023-02-02T19:33:00.046Z,7.97
2023-02-02T19:35:28.953Z,8.37
2023-02-02T19:38:01.408Z,6.10
2023-02-02T19:40:29.723Z,6.63
2023-02-02T19:42:58.940Z,5.60
2023-02-02T19:45:28.691Z,6.43
2023-02-02T19:47:57.354Z,5.87
2023-02-02T19:50:28.422Z,5.97
2023-02-02T19:52:57.309Z,7.47
2023-02-02T19:55:27.222Z,7.83
2023-02-02T19:57:59.306Z,6.83
2023-02-02T20:00:29.356Z,7.30
2023-02-02T20:02:59.526Z,8.23
2023-02-02T20:05:29.724Z,10.10
2023-02-02T20:08:00.270Z,8.20
2023-02-02T20:10:30.269Z,7.50
2023-02-02T20:12:58.538Z,8.93
2023-02-02T20:15:30.076Z,6.77
2023-02-02T20:17:58.822Z,6.97
2023-02-02T20:20:30.065Z,6.80
2023-02-02T20:22:58.366Z,9.83
2023-02-02T20:25:26.703Z,6.80
2023-02-02T20:27:55.054Z,6.23
2023-02-02T20:30:25.445Z,7.23
2023-02-02T20:32:56.420Z,8.20
2023-02-02T20:35:27.812Z,7.87
2023-02-02T20:37:57.545Z,9.07
2023-02-02T20:40:26.965Z,11.03
2023-02-02T20:42:56.994Z,6.73
2023-02-02T20:45:26.365Z,8.23
2023-02-02T20:47:54.726Z,5.57
2023-02-02T20:50:23.782Z,7.93
2023-02-02T20:52:53.644Z,7.13
2023-02-02T20:55:23.725Z,7.33
2023-02-02T20:57:52.019Z,7.50
2023-02-02T21:00:23.121Z,7.47
2023-02-02T21:02:52.199Z,6.50
2023-02-02T21:05:20.484Z,8.47
2023-02-02T21:07:48.865Z,7.70
2023-02-02T21:10:17.434Z,8.50
2023-02-02T21:12:50.863Z,9.87
2023-02-02T21:15:20.294Z,9.13
2023-02-02T21:17:48.553Z,7.90
2023-02-02T21:20:16.909Z,7.47
2023-02-02T21:22:45.192Z,9.83
2023-02-02T21:25:13.446Z,8.80
2023-02-02T21:27:42.280Z,13.67
2023-02-02T21:30:14.071Z,8.23
2023-02-02T21:32:42.587Z,11.60
2023-02-02T21:35:13.552Z,9.97
2023-02-02T21:37:44.272Z,10.00
2023-02-02T21:40:14.587Z,9.93
2023-02-02T21:42:49.920Z,11.80
2023-02-02T21:45:34.710Z,13.50
2023-02-02T21:48:04.264Z,10.37
2023-02-02T21:50:34.083Z,11.83
2023-02-02T21:53:20.864Z,12.10
2023-02-02T21:55:52.226Z,10.33
2023-02-02T21:58:22.535Z,10.40
2023-02-02T22:00:52.504Z,9.90
2023-02-02T22:03:33.035Z,11.73
2023-02-02T22:06:09.432Z,9.53
2023-02-02T22:08:38.064Z,10.97
2023-02-02T22:11:06.635Z,10.37
2023-02-02T22:13:35.606Z,10.80
2023-02-02T22:16:06.356Z,10.07
2023-02-02T22:18:35.010Z,9.50
2023-02-02T22:21:03.440Z,10.87
2023-02-02T22:23:31.715Z,8.40
2023-02-02T22:26:00.148Z,8.73
2023-02-02T22:28:29.558Z,8.60
2023-02-02T22:30:58.651Z,8.37
2023-02-02T22:33:28.420Z,8.00
2023-02-02T22:35:56.767Z,7.90
2023-02-02T22:38:25.806Z,8.53
2023-02-02T22:40:54.308Z,8.30
2023-02-02T22:43:22.697Z,7.63
2023-02-02T22:45:51.047Z,7.63
2023-02-02T22:48:19.336Z,8.20
2023-02-02T22:50:48.989Z,6.67
2023-02-02T22:53:17.255Z,5.37
2023-02-02T22:55:45.594Z,6.57
2023-02-02T22:58:13.867Z,6.70
2023-02-02T23:00:42.188Z,7.13
2023-02-02T23:03:10.493Z,8.83
2023-02-02T23:05:38.896Z,7.10
2023-02-02T23:08:08.750Z,7.30
2023-02-02T23:10:37.061Z,5.77
2023-02-02T23:13:06.041Z,7.23
2023-02-02T23:15:34.765Z,6.13
2023-02-02T23:18:03.301Z,9.20
2023-02-02T23:20:31.537Z,7.17
2023-02-02T23:22:59.852Z,8.33
2023-02-02T23:25:29.501Z,7.00
2023-02-02T23:27:57.763Z,8.40
2023-02-02T23:30:26.274Z,5.47
2023-02-02T23:32:54.641Z,9.13
2023-02-02T23:35:22.886Z,5.73
2023-02-02T23:37:51.112Z,7.33
2023-02-02T23:40:19.821Z,6.80
2023-02-02T23:42:49.455Z,8.70
2023-02-02T23:45:17.838Z,7.27
2023-02-02T23:47:46.149Z,7.50
2023-02-02T23:50:14.460Z,5.93
2023-02-02T23:52:42.702Z,8.50
2023-02-02T23:55:11.072Z,6.77
2023-02-02T23:57:39.402Z,9.93
